createdAt,value
2023-12-29T00:01:47.077Z,100217.13
2023-12-29T00:04:14.683Z,100218.59
2023-12-29T00:06:49.991Z,100212.28
2023-12-29T00:09:24.834Z,100217.19
2023-12-29T00:11:53.099Z,100212.22
2023-12-29T00:14:20.529Z,100211.38
2023-12-29T00:16:48.030Z,100205.53
2023-12-29T00:19:16.178Z,100193.13
2023-12-29T00:21:43.766Z,100188.47
2023-12-29T00:24:11.189Z,100186.94
2023-12-29T00:26:38.697Z,100182.09
2023-12-29T00:29:07.903Z,100174.97
2023-12-29T00:31:35.957Z,100180.63
2023-12-29T00:34:03.780Z,100181.78
2023-12-29T00:36:31.307Z,100182.84
2023-12-29T00:38:58.704Z,100173.19
2023-12-29T00:41:26.208Z,100183.13
2023-12-29T00:43:53.566Z,100177.66
2023-12-29T00:46:21.032Z,100176.38
2023-12-29T00:48:49.099Z,100167.56
2023-12-29T00:51:16.652Z,100165.69
2023-12-29T00:53:44.159Z,100169.22
2023-12-29T00:56:13.383Z,100153.69
2023-12-29T00:58:41.031Z,100158.50
2023-12-29T01:01:12.982Z,100149.41
2023-12-29T01:03:40.827Z,100150.63
2023-12-29T01:06:08.351Z,100142.28
2023-12-29T01:08:35.800Z,100146.28
2023-12-29T01:11:03.220Z,100145.00
2023-12-29T01:13:30.746Z,100138.47
2023-12-29T01:15:58.162Z,100126.25
2023-12-29T01:18:25.665Z,100127.41
2023-12-29T01:20:53.293Z,100116.75
2023-12-29T01:23:20.718Z,100121.81
2023-12-29T01:25:48.118Z,100133.53
2023-12-29T01:28:15.577Z,100129.09
2023-12-29T01:30:43.539Z,100133.31
2023-12-29T01:33:11.348Z,100116.03
2023-12-29T01:35:40.737Z,100124.25
2023-12-29T01:38:08.072Z,100124.19
2023-12-29T01:40:47.817Z,100118.91
2023-12-29T01:43:15.575Z,100124.84
2023-12-29T01:45:52.034Z,100125.75
2023-12-29T01:48:26.030Z,100120.38
2023-12-29T01:50:55.297Z,100110.91
2023-12-29T01:53:31.115Z,100121.94
2023-12-29T01:56:08.087Z,100109.31
2023-12-29T01:58:35.622Z,100101.28
2023-12-29T02:01:03.924Z,100093.69
2023-12-29T02:03:31.637Z,100087.34
2023-12-29T02:06:00.133Z,100092.22
2023-12-29T02:08:27.882Z,100098.88
2023-12-29T02:10:55.273Z,100093.03
2023-12-29T02:13:23.928Z,100079.66
2023-12-29T02:16:00.599Z,100081.78
2023-12-29T02:18:31.986Z,100073.59
2023-12-29T02:20:59.485Z,100073.53
2023-12-29T02:23:26.968Z,100073.38
2023-12-29T02:26:03.218Z,100064.97
2023-12-29T02:28:30.626Z,100059.78
2023-12-29T02:31:11.566Z,100057.22
2023-12-29T02:33:42.786Z,100053.03
2023-12-29T02:36:11.270Z,100053.03
2023-12-29T02:38:38.985Z,100039.81
2023-12-29T02:41:06.797Z,100049.50
2023-12-29T02:43:34.299Z,100037.81
2023-12-29T02:46:01.880Z,100050.31
2023-12-29T02:48:29.443Z,100034.97
2023-12-29T02:50:56.953Z,100031.63
2023-12-29T02:53:24.341Z,100040.97
2023-12-29T02:55:51.620Z,100049.72
2023-12-29T02:58:19.130Z,100042.78
2023-12-29T03:00:46.621Z,100029.78
2023-12-29T03:03:14.201Z,100028.94
2023-12-29T03:05:41.816Z,100029.53
2023-12-29T03:08:09.300Z,100028.03
2023-12-29T03:10:37.129Z,100029.53
2023-12-29T03:13:05.710Z,100021.84
2023-12-29T03:15:33.518Z,100033.72
2023-12-29T03:18:01.236Z,100026.53
2023-12-29T03:20:28.906Z,100020.47
2023-12-29T03:22:56.832Z,100018.34
2023-12-29T03:25:24.350Z,100017.72
2023-12-29T03:27:51.777Z,100006.88
2023-12-29T03:30:19.265Z,100010.47
2023-12-29T03:32:46.643Z,100013.09
2023-12-29T03:35:14.379Z,100019.91
2023-12-29T03:37:42.097Z,100005.22
2023-12-29T03:40:11.040Z,99994.28
2023-12-29T03:42:38.612Z,99995.25
2023-12-29T03:45:07.104Z,99999.25
2023-12-29T03:47:34.730Z,99999.19
2023-12-29T03:50:02.229Z,99994.91
2023-12-29T03:52:29.538Z,99981.41
2023-12-29T03:54:57.001Z,99974.88
2023-12-29T03:57:24.486Z,99984.72
2023-12-29T03:59:52.024Z,99987.41
2023-12-29T04:02:19.486Z,99980.19
2023-12-29T04:04:46.984Z,99985.16
2023-12-29T04:07:14.496Z,99979.28
2023-12-29T04:09:41.884Z,99971.63
2023-12-29T04:12:09.493Z,99964.53
2023-12-29T04:14:37.145Z,99961.28
2023-12-29T04:17:06.065Z,99962.88
2023-12-29T04:19:33.544Z,99951.28
2023-12-29T04:22:01.168Z,99941.81
2023-12-29T04:24:28.503Z,99932.53
2023-12-29T04:26:55.966Z,99932.06
2023-12-29T04:29:23.339Z,99941.63
2023-12-29T04:31:52.795Z,99930.31
2023-12-29T04:34:20.295Z,99933.31
2023-12-29T04:36:48.459Z,99924.22
2023-12-29T04:39:15.964Z,99914.22
2023-12-29T04:41:43.314Z,99923.13
2023-12-29T04:44:11.503Z,99919.91
2023-12-29T04:46:38.890Z,99916.06
2023-12-29T04:49:06.320Z,99913.53
2023-12-29T04:51:33.831Z,99915.34
2023-12-29T04:54:01.261Z,99907.16
2023-12-29T04:56:28.646Z,99913.03
2023-12-29T04:58:57.990Z,99903.31
2023-12-29T05:01:25.587Z,99898.72
2023-12-29T05:03:53.158Z,99912.47
2023-12-29T05:06:20.708Z,99917.69
2023-12-29T05:08:48.123Z,99914.47
2023-12-29T05:11:15.500Z,99917.28
2023-12-29T05:13:42.944Z,99923.72
2023-12-29T05:16:10.362Z,99916.72
2023-12-29T05:18:38.036Z,99909.81
2023-12-29T05:21:05.959Z,99904.94
2023-12-29T05:23:33.627Z,99916.97
2023-12-29T05:26:01.050Z,99920.13
2023-12-29T05:28:28.611Z,99913.00
2023-12-29T05:30:56.192Z,99899.16
2023-12-29T05:33:26.542Z,99910.63
2023-12-29T05:35:54.026Z,99897.84
2023-12-29T05:38:21.465Z,99900.09
2023-12-29T05:40:48.974Z,99896.22
2023-12-29T05:43:20.802Z,99904.41
2023-12-29T05:45:48.273Z,99902.47
2023-12-29T05:48:16.353Z,99895.25
2023-12-29T05:50:44.159Z,99904.84
2023-12-29T05:53:11.651Z,99898.84
2023-12-29T05:55:39.718Z,99909.78
2023-12-29T05:58:07.213Z,99902.50
2023-12-29T06:00:34.694Z,99908.81
2023-12-29T06:03:02.428Z,99907.00
2023-12-29T06:05:33.772Z,99898.28
2023-12-29T06:08:01.397Z,99892.59
2023-12-29T06:10:29.155Z,99893.03
2023-12-29T06:12:56.610Z,99899.34
2023-12-29T06:15:24.166Z,99884.97
2023-12-29T06:17:51.745Z,99891.06
2023-12-29T06:20:19.269Z,99887.03
2023-12-29T06:22:46.730Z,99898.69
2023-12-29T06:25:15.017Z,99901.16
2023-12-29T06:27:42.653Z,99900.66
2023-12-29T06:30:14.128Z,99903.69
2023-12-29T06:32:43.423Z,99897.34
2023-12-29T06:35:13.651Z,99904.09
2023-12-29T06:37:42.539Z,99917.53
2023-12-29T06:40:11.177Z,99916.34
2023-12-29T06:42:38.772Z,99910.44
2023-12-29T06:45:09.630Z,99902.03
2023-12-29T06:47:37.315Z,99896.53
2023-12-29T06:50:05.842Z,99903.97
2023-12-29T06:52:35.658Z,99895.38
2023-12-29T06:55:03.552Z,99895.69
2023-12-29T06:57:31.027Z,99894.19
2023-12-29T06:59:58.797Z,99879.59
2023-12-29T07:02:26.430Z,99888.59
2023-12-29T07:04:53.795Z,99885.69
2023-12-29T07:07:21.547Z,99893.06
2023-12-29T07:09:49.070Z,99888.06
2023-12-29T07:12:17.080Z,99895.97
2023-12-29T07:14:44.584Z,99908.22
2023-12-29T07:17:12.051Z,99899.88
2023-12-29T07:19:39.728Z,99894.47
2023-12-29T07:22:08.948Z,99908.56
2023-12-29T07:24:37.886Z,99900.84
2023-12-29T07:27:06.123Z,99898.47
2023-12-29T07:29:33.725Z,99908.88
2023-12-29T07:32:01.196Z,99911.59
2023-12-29T07:34:29.282Z,99912.88
2023-12-29T07:36:56.857Z,99921.13
2023-12-29T07:39:25.280Z,99910.94
2023-12-29T07:41:53.102Z,99928.03
2023-12-29T07:44:20.782Z,99910.06
2023-12-29T07:46:48.265Z,99914.19
2023-12-29T07:49:16.208Z,99933.50
2023-12-29T07:51:48.701Z,99926.84
2023-12-29T07:54:16.054Z,99923.56
2023-12-29T07:56:44.083Z,99927.06
2023-12-29T07:59:11.370Z,99921.56
2023-12-29T08:01:39.782Z,99925.66
2023-12-29T08:04:12.315Z,99930.41
2023-12-29T08:06:40.709Z,99935.88
2023-12-29T08:09:08.902Z,99926.16
2023-12-29T08:11:37.379Z,99938.13
2023-12-29T08:14:04.732Z,99937.38
2023-12-29T08:16:32.064Z,99939.63
2023-12-29T08:18:59.499Z,99930.56
2023-12-29T08:21:26.960Z,99933.69
2023-12-29T08:23:54.518Z,99934.84
2023-12-29T08:26:21.816Z,99934.06
2023-12-29T08:28:49.725Z,99930.91
2023-12-29T08:31:18.074Z,99919.22
2023-12-29T08:33:45.508Z,99922.25
2023-12-29T08:36:19.920Z,99915.72
2023-12-29T08:38:50.545Z,99932.78
2023-12-29T08:41:19.531Z,99935.44
2023-12-29T08:43:46.814Z,99935.00
2023-12-29T08:46:14.365Z,99928.00
2023-12-29T08:48:41.784Z,99927.69
2023-12-29T08:51:09.187Z,99925.78
2023-12-29T08:53:37.121Z,99924.22
2023-12-29T08:56:05.146Z,99927.53
2023-12-29T08:58:36.278Z,99935.47
2023-12-29T09:01:04.068Z,99915.53
2023-12-29T09:03:31.763Z,99914.31
2023-12-29T09:06:00.521Z,99935.16
2023-12-29T09:08:28.178Z,99938.78
2023-12-29T09:10:56.334Z,99943.56
2023-12-29T09:13:26.670Z,99941.91
2023-12-29T09:15:58.980Z,99947.72
2023-12-29T09:18:27.068Z,99949.50
2023-12-29T09:20:54.754Z,99945.72
2023-12-29T09:23:22.362Z,99932.22
2023-12-29T09:25:50.254Z,99947.50
2023-12-29T09:28:17.977Z,99951.13
2023-12-29T09:30:45.469Z,99932.31
2023-12-29T09:33:14.221Z,99947.81
2023-12-29T09:35:41.805Z,99950.19
2023-12-29T09:38:10.819Z,99939.94
2023-12-29T09:40:39.296Z,99933.38
2023-12-29T09:43:07.072Z,99923.84
2023-12-29T09:45:39.327Z,99948.06
2023-12-29T09:48:13.546Z,99936.00
2023-12-29T09:50:41.937Z,99942.94
2023-12-29T09:53:13.345Z,99926.31
2023-12-29T09:55:43.511Z,99921.69
2023-12-29T09:58:13.843Z,99934.03
2023-12-29T10:00:42.629Z,99940.28
2023-12-29T10:03:11.386Z,99939.47
2023-12-29T10:05:38.705Z,99925.47
2023-12-29T10:08:09.707Z,99927.59
2023-12-29T10:10:42.847Z,99925.31
2023-12-29T10:13:12.853Z,99934.28
2023-12-29T10:15:57.546Z,99939.84
2023-12-29T10:19:31.991Z,99940.66
2023-12-29T10:22:11.155Z,99926.97
2023-12-29T10:24:39.488Z,99919.22
2023-12-29T10:27:07.208Z,99932.41
2023-12-29T10:29:35.234Z,99934.88
2023-12-29T10:32:02.933Z,99928.28
2023-12-29T10:34:31.046Z,99912.47
2023-12-29T10:37:02.070Z,99906.22
2023-12-29T10:39:30.311Z,99898.66
2023-12-29T10:42:10.473Z,99892.41
2023-12-29T10:44:39.129Z,99907.03
2023-12-29T10:47:14.761Z,99904.41
2023-12-29T10:49:43.566Z,99919.19
2023-12-29T10:52:18.598Z,99935.69
2023-12-29T10:54:46.849Z,99928.09
2023-12-29T10:57:15.156Z,99914.44
2023-12-29T10:59:43.602Z,99909.50
2023-12-29T11:02:16.608Z,99940.56
2023-12-29T11:04:45.226Z,99928.31
2023-12-29T11:07:15.089Z,99933.72
2023-12-29T11:09:43.212Z,99933.19
2023-12-29T11:12:49.086Z,99934.69
2023-12-29T11:15:18.797Z,99927.81
2023-12-29T11:17:51.009Z,99927.63
2023-12-29T11:20:19.202Z,99932.88
2023-12-29T11:22:48.652Z,99927.88
2023-12-29T11:25:19.407Z,99930.38
2023-12-29T11:27:47.525Z,99916.03
2023-12-29T11:30:16.761Z,99909.31
2023-12-29T11:33:05.088Z,99896.53
2023-12-29T11:36:24.043Z,99907.47
2023-12-29T11:39:19.406Z,99902.38
2023-12-29T11:45:53.788Z,99908.25
2023-12-29T11:49:05.863Z,99889.72
2023-12-29T11:55:11.772Z,99870.03
2023-12-29T11:57:57.093Z,99869.13
2023-12-29T12:00:50.627Z,99872.19
2023-12-29T12:03:29.894Z,99879.34
2023-12-29T12:06:00.136Z,99875.16
2023-12-29T12:09:23.218Z,99862.53
2023-12-29T12:11:51.270Z,99870.97
2023-12-29T12:14:53.704Z,99882.81
2023-12-29T12:17:35.444Z,99886.59
2023-12-29T12:20:14.300Z,99881.19
2023-12-29T12:22:43.179Z,99878.66
2023-12-29T12:25:13.951Z,99877.66
2023-12-29T12:27:41.720Z,99866.09
2023-12-29T12:30:12.108Z,99875.03
2023-12-29T12:32:39.896Z,99880.84
2023-12-29T12:35:20.219Z,99878.03
2023-12-29T12:37:48.427Z,99881.81
2023-12-29T12:40:29.313Z,99880.38
2023-12-29T12:42:57.003Z,99880.06
2023-12-29T12:45:27.336Z,99857.34
2023-12-29T12:48:10.832Z,99883.00
2023-12-29T12:50:38.254Z,99885.47
2023-12-29T12:53:10.731Z,99875.22
2023-12-29T12:55:39.329Z,99877.44
2023-12-29T12:58:06.922Z,99873.94
2023-12-29T13:00:34.548Z,99882.69
2023-12-29T13:03:03.150Z,99867.56
2023-12-29T13:05:31.935Z,99873.81
2023-12-29T13:07:59.502Z,99867.16
2023-12-29T13:10:27.074Z,99866.84
2023-12-29T13:12:56.279Z,99865.69
2023-12-29T13:15:24.954Z,99876.41
2023-12-29T13:17:55.867Z,99870.19
2023-12-29T13:20:23.665Z,99867.88
2023-12-29T13:22:52.317Z,99859.09
2023-12-29T13:25:27.855Z,99857.59
2023-12-29T13:27:56.619Z,99850.34
2023-12-29T13:30:24.597Z,99851.00
2023-12-29T13:32:52.627Z,99847.75
2023-12-29T13:35:35.387Z,99843.63
2023-12-29T13:38:37.948Z,99828.66
2023-12-29T13:41:11.621Z,99840.84
2023-12-29T13:43:44.171Z,99845.91
2023-12-29T13:46:14.557Z,99836.38
2023-12-29T13:48:43.251Z,99831.59
2023-12-29T13:51:11.604Z,99833.72
2023-12-29T13:53:39.224Z,99823.53
2023-12-29T13:56:10.320Z,99838.19
2023-12-29T13:58:38.449Z,99835.94
2023-12-29T14:01:11.131Z,99838.19
2023-12-29T14:03:52.975Z,99830.78
2023-12-29T14:06:42.817Z,99824.03
2023-12-29T14:09:20.140Z,99836.91
2023-12-29T14:11:49.439Z,99843.50
2023-12-29T14:14:26.958Z,99845.31
2023-12-29T14:16:55.754Z,99835.59
2023-12-29T14:19:26.052Z,99845.78
2023-12-29T14:21:57.162Z,99846.41
2023-12-29T14:24:25.209Z,99841.53
2023-12-29T14:26:55.400Z,99841.00
2023-12-29T14:29:24.373Z,99841.19
2023-12-29T14:31:53.449Z,99842.03
2023-12-29T14:34:21.640Z,99828.06
2023-12-29T14:36:49.538Z,99826.19
2023-12-29T14:39:17.337Z,99824.59
2023-12-29T14:41:45.123Z,99832.31
2023-12-29T14:44:12.870Z,99841.06
2023-12-29T14:46:41.263Z,99837.91
2023-12-29T14:49:09.361Z,99835.59
2023-12-29T14:51:37.418Z,99841.53
2023-12-29T14:54:05.201Z,99839.91
2023-12-29T14:56:32.820Z,99846.31
2023-12-29T14:59:00.682Z,99829.19
2023-12-29T15:01:29.036Z,99841.03
2023-12-29T15:03:57.016Z,99832.97
2023-12-29T15:06:24.690Z,99843.34
2023-12-29T15:08:52.053Z,99839.72
2023-12-29T15:11:22.873Z,99838.91
2023-12-29T15:13:50.740Z,99848.78
2023-12-29T15:16:18.504Z,99845.81
2023-12-29T15:18:46.231Z,99816.59
2023-12-29T15:21:13.812Z,99846.47
2023-12-29T15:23:41.237Z,99840.53
2023-12-29T15:26:08.777Z,99835.78
2023-12-29T15:28:36.221Z,99827.50
2023-12-29T15:31:03.933Z,99829.03
2023-12-29T15:33:31.526Z,99830.84
2023-12-29T15:36:02.022Z,99840.84
2023-12-29T15:38:31.047Z,99844.03
2023-12-29T15:40:58.484Z,99853.88
2023-12-29T15:43:28.132Z,99859.78
2023-12-29T15:45:55.644Z,99861.94
2023-12-29T15:48:23.172Z,99860.97
2023-12-29T15:50:50.756Z,99861.63
2023-12-29T15:53:18.323Z,99845.91
2023-12-29T15:55:45.743Z,99848.75
2023-12-29T15:58:13.556Z,99857.16
2023-12-29T16:00:41.057Z,99845.81
2023-12-29T16:03:08.352Z,99860.94
2023-12-29T16:05:35.750Z,99863.09
2023-12-29T16:08:03.608Z,99873.13
2023-12-29T16:10:31.230Z,99882.34
2023-12-29T16:12:58.704Z,99884.16
2023-12-29T16:15:26.433Z,99865.19
2023-12-29T16:17:54.436Z,99871.69
2023-12-29T16:20:21.951Z,99883.94
2023-12-29T16:22:49.468Z,99894.53
2023-12-29T16:25:17.243Z,99882.69
2023-12-29T16:27:47.283Z,99900.44
2023-12-29T16:30:14.854Z,99896.34
2023-12-29T16:32:42.432Z,99895.19
2023-12-29T16:35:10.299Z,99899.78
2023-12-29T16:37:40.722Z,99903.13
2023-12-29T16:40:10.944Z,99905.41
2023-12-29T16:42:38.522Z,99899.78
2023-12-29T16:45:06.715Z,99890.41
2023-12-29T16:47:34.459Z,99882.34
2023-12-29T16:50:02.227Z,99877.44
2023-12-29T16:52:29.741Z,99867.19
2023-12-29T16:54:57.172Z,99862.22
2023-12-29T16:57:24.621Z,99867.38
2023-12-29T16:59:51.937Z,99864.53
2023-12-29T17:02:19.311Z,99853.06
2023-12-29T17:04:46.696Z,99853.88
2023-12-29T17:07:14.461Z,99859.47
2023-12-29T17:09:42.058Z,99857.97
2023-12-29T17:12:10.142Z,99862.44
2023-12-29T17:14:40.547Z,99857.81
2023-12-29T17:17:08.752Z,99856.63
2023-12-29T17:19:36.553Z,99859.13
2023-12-29T17:22:04.907Z,99860.28
2023-12-29T17:24:33.725Z,99860.78
2023-12-29T17:27:01.295Z,99850.25
2023-12-29T17:29:28.975Z,99845.00
2023-12-29T17:31:56.586Z,99843.47
2023-12-29T17:34:23.955Z,99845.50
2023-12-29T17:36:51.512Z,99835.75
2023-12-29T17:39:18.846Z,99847.09
2023-12-29T17:41:46.166Z,99856.03
2023-12-29T17:44:13.627Z,99858.81
2023-12-29T17:46:41.029Z,99872.81
2023-12-29T17:49:09.643Z,99871.50
2023-12-29T17:51:40.071Z,99882.00
2023-12-29T17:54:07.479Z,99877.91
2023-12-29T17:56:35.308Z,99865.88
2023-12-29T17:59:02.787Z,99878.41
2023-12-29T18:01:30.443Z,99893.88
2023-12-29T18:03:57.983Z,99864.56
2023-12-29T18:06:25.666Z,99873.78
2023-12-29T18:08:56.562Z,99882.50
2023-12-29T18:11:24.026Z,99893.72
2023-12-29T18:13:51.695Z,99881.84
2023-12-29T18:16:19.303Z,99882.75
2023-12-29T18:18:47.473Z,99876.75
2023-12-29T18:21:18.053Z,99866.53
2023-12-29T18:23:46.648Z,99870.78
2023-12-29T18:26:14.300Z,99864.22
2023-12-29T18:28:44.703Z,99864.22
2023-12-29T18:31:13.958Z,99872.47
2023-12-29T18:33:45.227Z,99878.19
2023-12-29T18:36:13.725Z,99872.81
2023-12-29T18:38:42.195Z,99869.34
2023-12-29T18:41:10.709Z,99870.50
2023-12-29T18:43:38.883Z,99873.78
2023-12-29T18:46:10.805Z,99874.13
2023-12-29T18:48:40.200Z,99873.63
2023-12-29T18:51:07.963Z,99867.69
2023-12-29T18:53:36.691Z,99869.00
2023-12-29T18:56:10.622Z,99873.63
2023-12-29T18:58:38.089Z,99881.69
2023-12-29T19:01:11.175Z,99884.81
2023-12-29T19:03:39.539Z,99884.97
2023-12-29T19:06:10.435Z,99878.06
2023-12-29T19:08:40.811Z,99897.50
2023-12-29T19:11:08.814Z,99897.16
2023-12-29T19:13:36.891Z,99900.78
2023-12-29T19:16:06.236Z,99908.50
2023-12-29T19:18:45.878Z,99902.91
2023-12-29T19:21:13.987Z,99899.78
2023-12-29T19:23:44.548Z,99911.66
2023-12-29T19:26:26.223Z,99920.88
2023-12-29T19:28:59.941Z,99922.19
2023-12-29T19:31:27.994Z,99925.47
2023-12-29T19:33:55.628Z,99922.31
2023-12-29T19:36:26.404Z,99905.44
2023-12-29T19:38:53.819Z,99907.63
2023-12-29T19:41:23.153Z,99906.25
2023-12-29T19:43:53.587Z,99922.19
2023-12-29T19:46:25.251Z,99926.25
2023-12-29T19:48:54.532Z,99914.38
2023-12-29T19:51:26.304Z,99911.88
2023-12-29T19:53:53.880Z,99916.78
2023-12-29T19:56:30.187Z,99920.50
2023-12-29T19:58:58.656Z,99895.13
2023-12-29T20:01:36.016Z,99903.84
2023-12-29T20:04:08.770Z,99902.28
2023-12-29T20:06:37.694Z,99894.34
2023-12-29T20:09:06.853Z,99898.44
2023-12-29T20:11:45.679Z,99889.69
2023-12-29T20:14:18.658Z,99900.47
2023-12-29T20:16:47.889Z,99905.78
2023-12-29T20:19:15.584Z,99901.00
2023-12-29T20:21:44.495Z,99907.63
2023-12-29T20:24:11.978Z,99899.19
2023-12-29T20:26:42.926Z,99894.75
2023-12-29T20:29:10.318Z,99888.56
2023-12-29T20:31:37.830Z,99894.66
2023-12-29T20:34:05.926Z,99885.75
2023-12-29T20:36:36.530Z,99878.00
2023-12-29T20:39:04.436Z,99874.09
2023-12-29T20:41:33.335Z,99872.47
2023-12-29T20:44:00.812Z,99870.78
2023-12-29T20:46:29.032Z,99862.69
2023-12-29T20:48:59.798Z,99877.00
2023-12-29T20:51:32.024Z,99868.59
2023-12-29T20:53:59.475Z,99867.94
2023-12-29T20:56:27.065Z,99875.31
2023-12-29T20:58:56.614Z,99868.00
2023-12-29T21:01:24.654Z,99873.03
2023-12-29T21:03:53.002Z,99869.13
2023-12-29T21:06:23.754Z,99874.50
2023-12-29T21:08:51.361Z,99852.88
2023-12-29T21:11:22.487Z,99857.94
2023-12-29T21:13:50.407Z,99854.63
2023-12-29T21:16:20.966Z,99854.00
2023-12-29T21:18:53.356Z,99853.66
2023-12-29T21:21:20.990Z,99865.06
2023-12-29T21:23:48.601Z,99854.34
2023-12-29T21:26:24.058Z,99838.53
2023-12-29T21:28:51.520Z,99830.81
2023-12-29T21:31:21.105Z,99831.88
2023-12-29T21:33:49.007Z,99826.72
2023-12-29T21:36:29.225Z,99821.47
2023-12-29T21:38:57.729Z,99811.56
2023-12-29T21:41:28.256Z,99811.94
2023-12-29T21:43:56.314Z,99799.91
2023-12-29T21:46:23.828Z,99789.34
2023-12-29T21:48:52.633Z,99783.94
2023-12-29T21:51:28.324Z,99779.44
2023-12-29T21:53:55.820Z,99773.06
2023-12-29T21:56:23.583Z,99770.75
2023-12-29T21:58:53.905Z,99759.97
2023-12-29T22:01:35.972Z,99762.41
2023-12-29T22:04:05.455Z,99755.56
2023-12-29T22:06:37.958Z,99762.84
2023-12-29T22:09:05.615Z,99749.38
2023-12-29T22:11:33.154Z,99748.19
2023-12-29T22:14:01.638Z,99746.13
2023-12-29T22:16:29.323Z,99756.22
2023-12-29T22:18:57.349Z,99764.22
2023-12-29T22:21:27.531Z,99758.41
2023-12-29T22:23:55.206Z,99755.41
2023-12-29T22:26:23.955Z,99761.41
2023-12-29T22:28:53.151Z,99762.22
2023-12-29T22:31:23.203Z,99752.94
2023-12-29T22:33:51.042Z,99756.16
2023-12-29T22:36:21.215Z,99748.94
2023-12-29T22:38:49.429Z,99741.53
2023-12-29T22:41:20.761Z,99739.19
2023-12-29T22:43:49.578Z,99737.25
2023-12-29T22:46:22.529Z,99739.56
2023-12-29T22:48:53.971Z,99735.94
2023-12-29T22:51:22.012Z,99729.06
2023-12-29T22:53:49.395Z,99723.91
2023-12-29T22:56:16.935Z,99719.66
2023-12-29T22:58:56.012Z,99713.88
2023-12-29T23:01:25.123Z,99710.28
2023-12-29T23:03:52.747Z,99701.38
2023-12-29T23:06:20.204Z,99694.50
2023-12-29T23:08:48.020Z,99707.34
2023-12-29T23:11:15.669Z,99790.19
2023-12-29T23:13:43.378Z,99789.28
2023-12-29T23:16:11.074Z,99784.06
2023-12-29T23:18:45.085Z,99767.00
2023-12-29T23:21:20.140Z,99763.28
2023-12-29T23:23:48.068Z,99764.72
2023-12-29T23:26:15.437Z,99756.00
2023-12-29T23:28:42.911Z,99766.91
2023-12-29T23:31:10.743Z,99760.16
2023-12-29T23:33:47.589Z,99766.47
2023-12-29T23:36:15.312Z,99773.41
2023-12-29T23:38:58.555Z,99789.63
2023-12-29T23:41:26.058Z,99790.66
2023-12-29T23:43:56.610Z,99778.28
2023-12-29T23:46:30.113Z,99797.56
2023-12-29T23:48:58.196Z,99789.53
2023-12-29T23:51:27.377Z,99762.94
2023-12-29T23:53:55.182Z,99788.41
2023-12-29T23:56:22.846Z,99786.91
2023-12-29T23:58:51.845Z,99791.13
